Time;durP1;ratioP1;P1;durP2;ratioP2;P2;SDS_P1;SDS_P2;PMS_P1;PMS_P2;Temp;Humidity;BMP_temperature;BMP_pressure;BME280_temperature;BME280_humidity;BME280_pressure;Samples;Min_cycle;Max_cycle;Signal;HPM_P1;HPM_P2
2023/06/08 00:02:24;;;;;;;7.00;4.05;;;;;;;18.48;42.38;101151.28;5052661;28;20045;-71
2023/06/08 00:04:52;;;;;;;6.25;4.10;;;;;;;18.55;42.03;101157.56;5052432;28;20055;-71
2023/06/08 00:07:21;;;;;;;9.35;3.90;;;;;;;18.41;42.15;101153.13;5051919;28;20037;-72
2023/06/08 00:09:50;;;;;;;6.68;3.80;;;;;;;18.29;41.60;101150.13;5052025;28;20128;-71
2023/06/08 00:12:18;;;;;;;8.02;3.75;;;;;;;18.38;42.25;101148.09;5051841;28;20060;-63
2023/06/08 00:14:45;;;;;;;7.45;4.60;;;;;;;18.19;42.05;101146.91;5052733;28;20083;-63
2023/06/08 00:17:13;;;;;;;7.43;3.90;;;;;;;18.35;42.28;101153.09;5053317;28;20055;-63
2023/06/08 00:19:42;;;;;;;6.82;4.28;;;;;;;18.22;41.87;101151.13;5051970;28;20045;-63
2023/06/08 00:22:12;;;;;;;8.20;3.90;;;;;;;18.27;41.74;101144.06;5052280;28;20049;-63
2023/06/08 00:24:39;;;;;;;7.97;3.67;;;;;;;18.32;41.94;101138.00;5052946;28;20049;-63
2023/06/08 00:27:06;;;;;;;7.97;4.13;;;;;;;18.13;41.71;101142.25;5052284;28;20072;-63
2023/06/08 00:29:33;;;;;;;9.90;4.63;;;;;;;18.05;42.23;101140.53;5052242;28;20037;-62
2023/06/08 00:31:59;;;;;;;7.90;4.40;;;;;;;17.96;42.15;101140.91;5053025;28;20110;-64
2023/06/08 00:34:27;;;;;;;14.00;4.40;;;;;;;18.07;41.55;101137.66;5052612;28;20040;-63
2023/06/08 00:36:53;;;;;;;8.80;4.53;;;;;;;17.93;41.41;101136.72;5049920;28;20099;-63
2023/06/08 00:39:20;;;;;;;7.72;4.10;;;;;;;17.94;41.09;101137.56;5037474;28;20049;-62
2023/06/08 00:41:46;;;;;;;8.65;4.53;;;;;;;17.96;40.84;101130.03;5014642;28;20417;-71
2023/06/08 00:44:13;;;;;;;8.38;4.45;;;;;;;17.93;40.86;101141.31;5030567;28;20049;-70
2023/06/08 00:46:39;;;;;;;7.40;4.18;;;;;;;17.83;40.04;101130.81;5031552;28;20045;-71
2023/06/08 00:49:08;;;;;;;7.95;4.38;;;;;;;17.88;40.17;101136.47;5032158;28;20401;-72
2023/06/08 00:51:40;;;;;;;8.45;4.25;;;;;;;17.92;39.94;101135.03;5032461;28;20065;-63
2023/06/08 00:54:12;;;;;;;8.00;4.10;;;;;;;17.94;40.15;101135.69;5032881;28;20520;-63
2023/06/08 00:56:40;;;;;;;10.95;4.50;;;;;;;17.81;40.07;101132.88;5031333;28;20045;-63
2023/06/08 00:59:09;;;;;;;10.65;4.30;;;;;;;17.79;40.03;101132.25;5032564;28;20416;-63
2023/06/08 01:01:38;;;;;;;6.25;4.13;;;;;;;17.83;39.76;101130.81;5030918;28;20052;-63
2023/06/08 01:04:06;;;;;;;12.00;4.50;;;;;;;17.81;39.90;101133.69;5031800;28;20048;-63
2023/06/08 01:10:04;;;;;;;12.85;4.93;;;;;;;17.64;39.75;101128.78;5032311;28;20071;-71
2023/06/08 01:12:35;;;;;;;9.05;4.50;;;;;;;17.84;39.48;101132.47;5045730;28;20041;-71
2023/06/08 01:15:11;;;;;;;7.28;4.97;;;;;;;17.66;39.97;101135.69;5051663;28;20565;-72
2023/06/08 01:17:40;;;;;;;7.05;4.35;;;;;;;17.79;39.66;101132.25;5051696;28;20049;-72
2023/06/08 01:20:29;;;;;;;;;;;;;;;17.89;40.25;101135.44;5052580;28;20044;-72
2023/06/08 01:23:34;;;;;;;6.05;4.25;;;;;;;17.80;40.17;101120.34;5051826;28;20011;-63
2023/06/08 01:26:03;;;;;;;8.48;4.63;;;;;;;17.81;40.62;101128.28;5051450;28;20501;-63
2023/06/08 01:28:30;;;;;;;7.63;4.60;;;;;;;17.89;40.39;101124.59;5052090;28;20045;-65
2023/06/08 01:30:58;;;;;;;8.38;4.10;;;;;;;17.80;41.17;101120.34;5051097;28;20404;-64
2023/06/08 01:33:29;;;;;;;6.60;4.28;;;;;;;17.83;41.53;101119.94;5051528;28;20535;-71
2023/06/08 01:36:02;;;;;;;8.07;4.47;;;;;;;17.80;42.00;101120.34;5051363;28;20045;-71
2023/06/08 01:38:39;;;;;;;8.93;4.72;;;;;;;17.88;41.97;101116.63;5051188;28;20338;-71
2023/06/08 01:41:11;;;;;;;15.50;4.43;;;;;;;17.73;42.99;101116.75;5048941;28;20131;-72
2023/06/08 01:43:42;;;;;;;6.95;4.20;;;;;;;17.69;41.43;101118.19;5050691;28;20044;-72
2023/06/08 01:46:11;;;;;;;12.45;5.03;;;;;;;17.75;43.41;101110.09;5050990;28;20087;-72
2023/06/08 01:52:25;;;;;;;13.45;4.28;;;;;;;17.74;44.16;101111.09;5049871;28;20040;-72
2023/06/08 01:54:52;;;;;;;8.65;4.60;;;;;;;17.67;44.38;101107.50;5050049;28;20048;-72
2023/06/08 01:57:19;;;;;;;6.90;4.07;;;;;;;17.54;44.66;101105.53;5050441;28;20488;-72
2023/06/08 01:59:45;;;;;;;7.47;4.28;;;;;;;17.62;44.80;101111.88;5049961;28;20049;-72
2023/06/08 02:02:12;;;;;;;7.38;4.43;;;;;;;17.44;45.21;101099.63;5050493;28;20524;-72
2023/06/08 02:04:38;;;;;;;9.18;4.18;;;;;;;17.42;45.04;101101.69;5050014;28;20059;-72
2023/06/08 02:07:05;;;;;;;10.07;4.40;;;;;;;17.46;45.02;101096.72;5049847;28;20037;-72
2023/06/08 02:09:32;;;;;;;12.60;4.85;;;;;;;17.46;45.09;101111.09;5049473;28;20048;-63
2023/06/08 02:12:16;;;;;;;10.43;4.53;;;;;;;17.40;45.06;101100.22;5049852;28;20408;-71
2023/06/08 02:14:43;;;;;;;9.65;4.78;;;;;;;17.43;45.04;101102.53;5049757;28;20053;-69
2023/06/08 02:17:11;;;;;;;9.77;4.53;;;;;;;17.39;45.18;101101.25;5033021;28;20071;-71
2023/06/08 02:19:37;;;;;;;9.27;4.72;;;;;;;17.35;45.29;101106.22;5050170;28;20044;-71
2023/06/08 02:22:04;;;;;;;8.23;5.03;;;;;;;17.34;44.97;101108.09;5031715;28;20048;-71
2023/06/08 02:24:30;;;;;;;7.80;4.50;;;;;;;17.28;45.18;101100.72;5050161;28;20467;-69
2023/06/08 02:26:57;;;;;;;11.23;4.68;;;;;;;17.26;45.07;101099.22;5051000;28;20045;-71
2023/06/08 02:29:24;;;;;;;7.82;4.90;;;;;;;17.26;45.62;101104.66;5049923;28;20041;-71
2023/06/08 02:31:50;;;;;;;9.32;4.88;;;;;;;17.16;45.33;101101.41;5032610;28;20481;-70
2023/06/08 02:34:17;;;;;;;10.40;4.60;;;;;;;17.15;44.74;101100.59;5032227;28;20045;-71
2023/06/08 02:36:44;;;;;;;9.63;4.85;;;;;;;17.18;44.63;101108.34;5049983;28;20068;-70
2023/06/08 02:39:11;;;;;;;8.60;4.65;;;;;;;17.20;44.14;101103.56;5036339;28;20441;-71
2023/06/08 02:41:37;;;;;;;10.18;4.90;;;;;;;17.16;44.74;101099.53;5029725;28;20045;-72
2023/06/08 02:44:04;;;;;;;9.27;5.03;;;;;;;17.10;43.94;101098.47;5029864;28;20050;-72
2023/06/08 02:46:32;;;;;;;9.15;4.60;;;;;;;17.17;44.16;101098.53;5030045;28;20049;-70
2023/06/08 02:49:00;;;;;;;13.63;4.75;;;;;;;17.08;43.99;101108.66;5030865;28;20053;-70
2023/06/08 02:51:26;;;;;;;13.30;4.90;;;;;;;17.11;43.67;101105.56;5029946;28;20107;-70
2023/06/08 02:53:53;;;;;;;8.00;4.07;;;;;;;17.08;43.59;101105.94;5029931;28;20045;-70
2023/06/08 02:56:21;;;;;;;10.20;4.82;;;;;;;17.09;43.40;101101.34;5029437;28;20049;-74
2023/06/08 02:58:48;;;;;;;8.05;4.75;;;;;;;17.11;43.83;101102.84;5029282;28;20107;-73
2023/06/08 03:01:15;;;;;;;7.43;4.60;;;;;;;17.10;43.28;101098.47;5029446;28;20460;-73
2023/06/08 03:03:51;;;;;;;11.82;5.10;;;;;;;17.11;42.96;101102.00;5029572;28;20560;-71
2023/06/08 03:06:19;;;;;;;7.60;4.43;;;;;;;17.12;42.90;101099.09;5029885;28;20048;-73
2023/06/08 03:08:53;;;;;;;16.40;5.30;;;;;;;17.13;42.60;101108.09;5029549;28;20493;-72
2023/06/08 03:11:20;;;;;;;10.45;4.35;;;;;;;17.16;42.47;101101.41;5034275;28;20045;-73
2023/06/08 03:13:48;;;;;;;8.57;5.00;;;;;;;17.14;42.46;101099.75;5049188;28;20080;-73
2023/06/08 03:16:15;;;;;;;8.43;4.55;;;;;;;17.18;42.44;101093.94;5048596;28;20047;-72
2023/06/08 03:18:44;;;;;;;8.13;4.65;;;;;;;17.20;42.30;101095.44;5049905;28;20049;-69
2023/06/08 03:21:12;;;;;;;11.10;4.40;;;;;;;17.22;42.49;101100.66;5050193;28;20098;-72
2023/06/08 03:23:39;;;;;;;6.55;4.30;;;;;;;17.25;41.98;101095.69;5049055;28;20041;-72
2023/06/08 03:26:05;;;;;;;8.05;4.85;;;;;;;17.23;42.40;101103.16;5049089;28;20037;-72
2023/06/08 03:28:32;;;;;;;9.48;4.90;;;;;;;17.13;42.21;101095.38;5032543;28;20425;-71
2023/06/08 03:30:59;;;;;;;11.32;4.85;;;;;;;17.07;42.54;101101.56;5050222;28;20045;-72
2023/06/08 03:33:25;;;;;;;8.52;5.10;;;;;;;17.06;42.17;101099.91;5049516;28;20049;-72
2023/06/08 03:35:53;;;;;;;8.90;4.93;;;;;;;17.10;42.31;101101.19;5049697;28;20045;-72
2023/06/08 03:38:20;;;;;;;8.00;4.72;;;;;;;17.08;42.64;101096.97;5048719;28;20087;-71
2023/06/08 03:40:46;;;;;;;7.50;4.88;;;;;;;17.01;42.87;101096.06;5049109;28;20049;-72
2023/06/08 03:43:13;;;;;;;7.35;4.50;;;;;;;17.03;43.02;101096.75;5048894;28;20056;-72
2023/06/08 03:45:39;;;;;;;9.93;5.40;;;;;;;16.99;43.48;101093.56;5048513;28;20076;-72
2023/06/08 03:48:06;;;;;;;9.13;4.88;;;;;;;17.00;43.35;101087.13;5049368;28;20041;-71
2023/06/08 03:50:33;;;;;;;10.07;4.55;;;;;;;17.04;43.32;101088.41;5049120;28;20539;-71
2023/06/08 03:52:59;;;;;;;8.13;4.75;;;;;;;17.12;42.95;101096.38;5049578;28;20041;-71
2023/06/08 03:55:26;;;;;;;8.45;4.68;;;;;;;17.08;42.73;101100.53;5049197;28;20041;-71
2023/06/08 03:57:53;;;;;;;6.68;4.80;;;;;;;16.98;42.94;101096.47;5049002;28;20040;-72
2023/06/08 04:00:20;;;;;;;10.45;5.30;;;;;;;16.99;43.06;101096.28;5048953;28;20041;-72
2023/06/08 04:02:46;;;;;;;11.50;4.82;;;;;;;16.99;42.84;101100.84;5049017;28;20049;-71
2023/06/08 04:05:13;;;;;;;10.00;5.25;;;;;;;17.00;43.00;101103.38;5052315;28;20045;-71
2023/06/08 04:07:42;;;;;;;7.70;4.93;;;;;;;16.99;43.29;101101.72;5052525;28;20044;-72
2023/06/08 04:10:09;;;;;;;6.95;4.63;;;;;;;16.87;43.31;101104.06;5052759;28;20049;-73
2023/06/08 04:12:36;;;;;;;8.05;4.50;;;;;;;16.83;43.86;101096.53;5052634;28;20045;-71
2023/06/08 04:15:03;;;;;;;7.72;4.63;;;;;;;16.89;43.79;101101.19;5051979;28;20045;-71
2023/06/08 04:17:30;;;;;;;8.40;4.97;;;;;;;16.97;43.71;101106.47;5052597;28;20044;-71
2023/06/08 04:19:56;;;;;;;8.48;4.97;;;;;;;16.96;44.28;101103.97;5052932;28;20041;-70
2023/06/08 04:22:23;;;;;;;8.65;5.20;;;;;;;16.99;44.09;101096.28;5052737;28;20377;-72
2023/06/08 04:24:50;;;;;;;11.32;5.05;;;;;;;16.96;44.34;101107.50;5052563;28;20047;-72
2023/06/08 04:27:17;;;;;;;7.70;5.38;;;;;;;16.88;44.41;101108.44;5052455;28;20459;-72
2023/06/08 04:29:43;;;;;;;12.00;5.53;;;;;;;16.98;44.46;101101.88;5052889;28;20053;-64
2023/06/08 04:32:10;;;;;;;10.50;5.80;;;;;;;16.95;44.44;101105.81;5051899;28;20131;-65
2023/06/08 04:34:37;;;;;;;9.82;5.43;;;;;;;16.98;44.26;101099.16;5053195;28;20052;-62
2023/06/08 04:37:03;;;;;;;13.18;5.10;;;;;;;17.09;44.52;101106.78;5052242;28;20053;-63
2023/06/08 04:39:31;;;;;;;13.40;5.25;;;;;;;17.11;44.44;101105.56;5036948;28;20132;-63
2023/06/08 04:41:58;;;;;;;11.68;5.15;;;;;;;17.13;44.79;101100.78;5032168;28;20092;-63
2023/06/08 04:44:25;;;;;;;8.32;5.03;;;;;;;17.26;44.96;101099.22;5032453;28;20053;-70
2023/06/08 04:46:53;;;;;;;11.25;4.90;;;;;;;17.41;44.62;101104.63;5031994;28;20049;-71
2023/06/08 04:49:20;;;;;;;14.30;5.40;;;;;;;17.45;44.64;101098.59;5031855;28;20041;-71
2023/06/08 04:51:47;;;;;;;9.23;4.95;;;;;;;17.47;44.34;101099.22;5031938;28;20055;-71
2023/06/08 04:54:15;;;;;;;12.02;5.65;;;;;;;17.64;43.55;101096.22;5031926;28;20382;-71
2023/06/08 04:56:42;;;;;;;12.60;5.50;;;;;;;17.74;43.27;101097.53;5031900;28;20136;-67
2023/06/08 04:59:09;;;;;;;10.88;4.88;;;;;;;17.77;43.73;101097.16;5031615;28;20045;-71
2023/06/08 05:01:36;;;;;;;8.90;5.30;;;;;;;17.85;43.81;101096.97;5031650;28;20132;-70
2023/06/08 05:04:07;;;;;;;11.57;5.50;;;;;;;17.81;42.84;101101.13;5014040;28;20467;-71
2023/06/08 05:06:35;;;;;;;10.48;4.53;;;;;;;17.81;43.83;101097.59;5032079;28;20052;-70
2023/06/08 05:09:01;;;;;;;9.05;4.50;;;;;;;17.90;43.46;101096.41;5031752;28;20095;-69
2023/06/08 05:11:28;;;;;;;10.07;4.93;;;;;;;17.93;43.04;101104.16;5037900;28;20102;-70
2023/06/08 05:13:54;;;;;;;11.70;4.78;;;;;;;18.03;42.27;101098.34;5050706;28;20045;-71
2023/06/08 05:16:21;;;;;;;14.73;5.65;;;;;;;18.08;42.31;101091.28;5051937;28;20053;-71
2023/06/08 05:18:51;;;;;;;9.77;4.80;;;;;;;18.18;42.36;101095.53;5051480;28;20136;-71
2023/06/08 05:21:18;;;;;;;9.98;4.85;;;;;;;18.16;41.14;101092.19;5052060;28;20048;-68
2023/06/08 05:23:45;;;;;;;11.23;4.90;;;;;;;18.39;41.57;101092.72;5051363;28;20049;-68
2023/06/08 05:26:11;;;;;;;8.80;4.90;;;;;;;18.51;40.49;101095.66;5051287;28;20096;-68
2023/06/08 05:28:38;;;;;;;10.32;5.03;;;;;;;18.57;39.76;101102.16;5050963;28;20064;-68
2023/06/08 05:31:05;;;;;;;20.65;5.20;;;;;;;18.55;39.83;101096.97;5051085;28;20049;-68
2023/06/08 05:33:32;;;;;;;12.38;5.13;;;;;;;18.55;39.55;101096.97;5050968;28;20467;-68
2023/06/08 05:35:58;;;;;;;13.50;5.32;;;;;;;18.43;39.55;101099.41;5051959;28;20481;-68
2023/06/08 05:38:31;;;;;;;15.57;5.57;;;;;;;18.59;39.35;101102.81;5050899;28;20052;-69
2023/06/08 05:40:57;;;;;;;10.15;4.50;;;;;;;18.58;38.97;101095.69;5051301;28;20040;-68
2023/06/08 05:43:24;;;;;;;18.10;5.40;;;;;;;18.56;38.82;101095.91;5051133;28;20063;-69
2023/06/08 05:45:50;;;;;;;9.98;4.68;;;;;;;18.73;38.74;101105.38;5050919;28;20064;-68
2023/06/08 05:48:17;;;;;;;17.20;4.68;;;;;;;18.76;38.28;101099.53;5050765;28;20045;-69
2023/06/08 05:50:44;;;;;;;12.45;4.88;;;;;;;18.73;38.31;101099.94;5050858;28;20049;-68
2023/06/08 05:53:10;;;;;;;12.15;5.13;;;;;;;18.70;37.72;101103.06;5050564;28;20045;-68
2023/06/08 05:55:41;;;;;;;7.88;4.80;;;;;;;18.71;38.21;101095.72;5050499;28;20416;-68
2023/06/08 05:58:09;;;;;;;6.60;4.60;;;;;;;18.65;37.96;101097.38;5050913;28;20045;-68
2023/06/08 06:00:35;;;;;;;11.93;5.15;;;;;;;18.65;38.31;101096.53;5050615;28;20091;-68
2023/06/08 06:03:02;;;;;;;14.18;5.20;;;;;;;18.63;37.62;101095.94;5050210;28;20056;-68
2023/06/08 06:05:30;;;;;;;8.18;4.78;;;;;;;18.77;37.33;101089.47;5051254;28;20044;-68
2023/06/08 06:07:56;;;;;;;10.73;4.20;;;;;;;18.64;36.34;101093.00;5050633;28;20520;-68
2023/06/08 06:10:23;;;;;;;12.95;5.25;;;;;;;18.76;36.06;101098.69;5049977;28;20123;-69
2023/06/08 06:12:50;;;;;;;13.05;4.72;;;;;;;18.68;36.56;101101.56;5066659;28;20048;-68
2023/06/08 06:15:19;;;;;;;9.38;4.60;;;;;;;18.55;35.94;101100.50;5065694;28;20052;-68
2023/06/08 06:17:45;;;;;;;9.40;4.32;;;;;;;18.57;36.31;101096.75;5050480;28;20056;-68
2023/06/08 06:20:12;;;;;;;16.42;5.47;;;;;;;18.66;36.49;101099.06;5049959;28;20044;-68
2023/06/08 06:22:39;;;;;;;16.85;5.43;;;;;;;18.68;36.70;101107.00;5049723;28;20045;-69
2023/06/08 06:25:06;;;;;;;12.88;4.60;;;;;;;18.70;36.68;101104.94;5049049;28;20041;-67
2023/06/08 06:27:32;;;;;;;14.52;4.70;;;;;;;18.73;37.00;101102.66;5049446;28;20485;-69
2023/06/08 06:30:13;;;;;;;18.23;5.57;;;;;;;18.86;36.84;101104.56;5049619;28;20091;-69
2023/06/08 06:32:39;;;;;;;11.55;4.75;;;;;;;18.91;36.88;101107.50;5049120;28;20052;-69
2023/06/08 06:35:06;;;;;;;14.15;5.30;;;;;;;19.02;37.22;101101.47;5050124;28;20067;-65
2023/06/08 06:37:36;;;;;;;17.42;5.10;;;;;;;19.14;37.13;101104.44;5049998;28;20065;-66
2023/06/08 06:40:06;;;;;;;15.05;5.35;;;;;;;19.20;37.65;101100.03;5050105;28;20420;-69
2023/06/08 06:42:35;;;;;;;24.83;5.57;;;;;;;19.18;36.56;101097.53;5050122;28;20045;-68
2023/06/08 06:45:02;;;;;;;13.98;5.28;;;;;;;19.30;37.71;101100.44;5049846;28;20493;-68
2023/06/08 06:47:28;;;;;;;16.13;4.93;;;;;;;19.28;37.81;101108.00;5050921;28;20098;-70
2023/06/08 06:49:55;;;;;;;13.13;4.50;;;;;;;19.32;37.56;101108.41;5049736;28;20078;-69
2023/06/08 06:52:22;;;;;;;9.98;5.20;;;;;;;19.32;37.21;101106.53;5049151;28;20053;-70
2023/06/08 06:54:48;;;;;;;14.30;5.00;;;;;;;19.14;37.23;101104.44;5049263;28;20049;-68
2023/06/08 06:57:15;;;;;;;11.95;5.00;;;;;;;19.26;37.25;101110.06;5049617;28;20045;-69
2023/06/08 06:59:42;;;;;;;12.60;5.13;;;;;;;19.57;37.74;101109.44;5049885;28;20072;-70
2023/06/08 07:02:09;;;;;;;12.35;4.22;;;;;;;19.52;36.97;101101.09;5049330;28;20048;-67
2023/06/08 07:04:35;;;;;;;16.27;5.10;;;;;;;19.57;37.30;101108.63;5049751;28;20069;-68
2023/06/08 07:07:03;;;;;;;12.57;4.90;;;;;;;19.75;37.21;101102.56;5049428;28;20496;-69
2023/06/08 07:09:29;;;;;;;15.82;5.03;;;;;;;19.84;37.14;101095.84;5050722;28;20102;-68
2023/06/08 07:11:56;;;;;;;7.13;4.35;;;;;;;19.88;36.78;101099.81;5059435;28;20113;-68
2023/06/08 07:14:40;;;;;;;13.23;4.88;;;;;;;20.13;36.66;101098.06;5069435;28;20065;-69
2023/06/08 07:17:06;;;;;;;15.85;4.95;;;;;;;20.09;36.54;101099.53;5069634;28;20048;-68
2023/06/08 07:19:33;;;;;;;9.32;4.63;;;;;;;20.53;36.87;101102.56;5069490;28;20076;-70
2023/06/08 07:22:00;;;;;;;16.45;4.32;;;;;;;20.74;35.92;101096.78;5070602;28;20068;-68
2023/06/08 07:24:30;;;;;;;11.25;5.03;;;;;;;20.92;35.82;101091.41;5069826;28;20377;-70
2023/06/08 07:27:16;;;;;;;11.32;4.50;;;;;;;21.51;35.73;101096.66;5069548;28;20051;-70
2023/06/08 07:29:43;;;;;;;13.90;4.68;;;;;;;21.90;34.60;101094.63;5069443;28;20435;-70
2023/06/08 07:32:13;;;;;;;12.60;4.70;;;;;;;21.94;35.02;101093.94;5069746;28;20123;-69
2023/06/08 07:34:40;;;;;;;14.23;4.22;;;;;;;21.75;34.69;101084.03;5068407;28;20052;-70
2023/06/08 07:37:07;;;;;;;15.85;4.70;;;;;;;22.14;35.06;101092.88;5070017;28;20079;-70
2023/06/08 07:39:33;;;;;;;11.90;4.43;;;;;;;22.01;34.27;101085.66;5054899;28;20488;-68
2023/06/08 07:42:00;;;;;;;10.05;4.57;;;;;;;22.45;34.47;101086.41;5053958;28;20103;-72
2023/06/08 07:44:26;;;;;;;11.70;4.18;;;;;;;22.59;34.76;101090.66;5052947;28;20451;-71
2023/06/08 07:46:53;;;;;;;13.27;4.18;;;;;;;22.65;33.94;101086.16;5066485;28;20385;-72
2023/06/08 07:49:20;;;;;;;11.25;4.32;;;;;;;22.73;34.04;101081.19;5073294;28;20045;-70
2023/06/08 07:51:46;;;;;;;11.07;4.80;;;;;;;22.74;33.79;101085.59;5073508;28;20048;-71
2023/06/08 07:54:14;;;;;;;10.35;4.57;;;;;;;23.11;34.17;101087.34;5073090;28;20101;-70
2023/06/08 07:56:40;;;;;;;12.65;4.65;;;;;;;22.74;33.64;101084.75;5073519;28;20040;-70
2023/06/08 07:59:07;;;;;;;14.52;4.95;;;;;;;23.15;33.60;101092.16;5072896;28;20047;-71
2023/06/08 08:01:34;;;;;;;14.27;3.97;;;;;;;23.12;33.84;101086.28;5073316;28;20053;-72
2023/06/08 08:04:01;;;;;;;9.05;4.20;;;;;;;23.22;34.01;101081.09;5072204;28;20040;-72
2023/06/08 08:06:28;;;;;;;12.57;4.53;;;;;;;23.35;33.54;101080.03;5073054;28;20044;-73
2023/06/08 08:08:54;;;;;;;10.32;4.57;;;;;;;23.88;33.75;101073.63;5072482;28;20045;-72
2023/06/08 08:11:21;;;;;;;14.48;4.43;;;;;;;23.81;33.42;101079.22;5072551;28;20094;-73
2023/06/08 08:13:49;;;;;;;18.38;4.35;;;;;;;23.97;33.37;101072.19;5071344;28;20056;-73
2023/06/08 08:16:15;;;;;;;16.98;4.07;;;;;;;24.16;32.85;101075.59;5072736;28;20048;-73
2023/06/08 08:18:42;;;;;;;15.75;4.22;;;;;;;23.67;33.48;101075.88;5071682;28;20044;-73
2023/06/08 08:21:08;;;;;;;15.07;4.75;;;;;;;24.10;33.29;101071.94;5072511;28;20052;-72
2023/06/08 08:23:35;;;;;;;7.57;3.92;;;;;;;24.64;32.39;101072.47;5072566;28;20492;-73
2023/06/08 08:26:02;;;;;;;13.95;4.63;;;;;;;24.41;32.49;101070.66;5071939;28;20052;-72
2023/06/08 08:28:28;;;;;;;18.63;4.30;;;;;;;24.26;32.80;101074.97;5073271;28;20075;-72
2023/06/08 08:30:55;;;;;;;11.18;4.10;;;;;;;24.66;32.10;101066.75;5072402;28;20044;-73
2023/06/08 08:33:22;;;;;;;15.25;3.83;;;;;;;24.55;31.93;101068.47;5056166;28;20196;-73
2023/06/08 08:35:48;;;;;;;8.07;4.05;;;;;;;24.33;32.21;101075.66;5057468;28;20442;-73
2023/06/08 08:38:15;;;;;;;13.15;4.03;;;;;;;24.62;32.53;101074.63;5061199;28;20079;-72
2023/06/08 08:40:41;;;;;;;10.30;4.35;;;;;;;24.85;32.58;101078.31;5072102;28;20094;-72
2023/06/08 08:43:29;;;;;;;11.25;4.07;;;;;;;25.09;31.58;101071.63;5071603;28;20131;-71
2023/06/08 08:45:58;;;;;;;10.32;4.10;;;;;;;25.55;31.09;101075.13;5061348;28;20056;-70
2023/06/08 08:48:27;;;;;;;11.18;3.35;;;;;;;25.38;31.25;101071.56;5062065;28;20420;-71
2023/06/08 08:50:58;;;;;;;8.88;4.05;;;;;;;25.53;31.33;101071.81;5051092;28;20076;-72
2023/06/08 08:53:30;;;;;;;11.48;3.65;;;;;;;26.09;30.93;101077.28;5055421;28;20064;-72
2023/06/08 08:55:59;;;;;;;7.20;3.83;;;;;;;25.98;31.20;101073.56;5072695;28;20054;-72
2023/06/08 08:58:26;;;;;;;13.98;4.18;;;;;;;25.43;31.52;101066.16;5071860;28;20045;-72
2023/06/08 09:01:02;;;;;;;12.18;4.15;;;;;;;25.89;31.28;101061.34;5070951;28;20049;-72
2023/06/08 09:03:29;;;;;;;13.63;4.20;;;;;;;25.89;31.11;101072.31;5072476;28;20106;-72
2023/06/08 09:05:55;;;;;;;9.63;4.30;;;;;;;25.60;31.70;101060.66;5072341;28;20045;-71
2023/06/08 09:08:25;;;;;;;10.90;3.42;;;;;;;26.04;30.68;101063.47;5072891;28;20127;-73
2023/06/08 09:11:04;;;;;;;16.08;4.10;;;;;;;25.96;30.85;101055.66;5072019;28;20102;-73
2023/06/08 09:13:32;;;;;;;14.43;4.40;;;;;;;26.33;30.90;101055.88;5072411;28;20048;-71
2023/06/08 09:16:38;;;;;;;13.77;4.47;;;;;;;25.52;31.64;101061.06;5071055;28;20098;-71
2023/06/08 09:19:06;;;;;;;12.65;3.50;;;;;;;26.10;31.70;101062.44;5060365;28;20054;-72
2023/06/08 09:21:33;;;;;;;12.00;3.85;;;;;;;27.13;31.37;101061.63;5071064;28;20451;-71
2023/06/08 09:24:27;;;;;;;16.13;4.22;;;;;;;27.40;30.20;101054.16;5070669;28;20496;-72
2023/06/08 09:26:56;;;;;;;12.15;4.30;;;;;;;27.15;30.09;101051.19;5065236;28;20438;-71
2023/06/08 09:29:34;;;;;;;12.63;4.18;;;;;;;27.78;30.13;101048.59;5054503;28;20048;-73
2023/06/08 09:32:02;;;;;;;9.40;3.92;;;;;;;28.00;29.28;101042.91;5071634;28;20090;-72
2023/06/08 09:34:29;;;;;;;11.15;4.00;;;;;;;28.37;28.61;101046.34;5052650;28;20045;-71
2023/06/08 09:37:06;;;;;;;10.88;3.78;;;;;;;28.86;28.21;101045.91;5052146;28;20049;-70
2023/06/08 09:39:44;;;;;;;12.60;4.20;;;;;;;28.08;27.96;101037.72;5050990;28;20119;-70
2023/06/08 09:42:11;;;;;;;12.80;4.22;;;;;;;27.98;28.58;101042.38;5051839;28;20091;-72
2023/06/08 09:44:38;;;;;;;15.30;3.50;;;;;;;27.91;28.36;101048.13;5033977;28;20513;-73
2023/06/08 09:47:27;;;;;;;9.13;3.60;;;;;;;28.20;27.56;101046.59;5062215;28;20112;-70
2023/06/08 09:49:55;;;;;;;6.05;3.78;;;;;;;28.30;27.37;101045.78;5053504;28;20051;-71
2023/06/08 09:52:23;;;;;;;10.00;3.60;;;;;;;27.89;27.89;101048.38;5071350;28;21484;-71
2023/06/08 09:54:51;;;;;;;9.20;3.70;;;;;;;28.27;27.39;101040.81;5070889;28;20044;-74
2023/06/08 09:57:20;;;;;;;11.43;3.90;;;;;;;27.93;28.10;101030.22;5071353;28;20147;-73
2023/06/08 09:59:56;;;;;;;9.35;3.80;;;;;;;27.37;28.17;101027.13;5071489;28;20052;-72
2023/06/08 10:02:34;;;;;;;7.00;3.08;;;;;;;27.47;28.31;101035.47;5070431;28;20052;-71
2023/06/08 10:05:15;;;;;;;8.32;4.10;;;;;;;28.33;27.46;101027.88;5070926;28;20090;-72
2023/06/08 10:07:45;;;;;;;10.77;3.35;;;;;;;28.65;27.28;101022.16;5053116;28;20045;-70
2023/06/08 10:10:17;;;;;;;11.57;3.75;;;;;;;28.86;26.48;101029.34;5068143;28;20101;-71
2023/06/08 10:12:45;;;;;;;9.63;4.18;;;;;;;28.50;26.98;101024.91;5070555;28;20079;-72
2023/06/08 10:15:12;;;;;;;8.70;3.78;;;;;;;28.98;26.89;101022.78;5071254;28;20132;-72
2023/06/08 10:17:40;;;;;;;10.68;4.03;;;;;;;29.27;26.47;101015.53;5068117;28;20045;-71
2023/06/08 10:20:07;;;;;;;4.75;2.95;;;;;;;28.41;27.08;101014.38;5051257;28;20053;-72
2023/06/08 10:22:36;;;;;;;5.72;3.38;;;;;;;28.54;27.32;101018.56;5050472;28;20095;-72
2023/06/08 10:25:04;;;;;;;8.02;3.67;;;;;;;28.97;27.43;101010.88;5050588;28;20048;-71
2023/06/08 10:27:35;;;;;;;9.52;4.50;;;;;;;28.92;26.91;101010.84;5030356;28;20143;-71
2023/06/08 10:30:05;;;;;;;10.10;3.50;;;;;;;28.85;26.83;101018.59;5034867;28;20130;-71
2023/06/08 10:32:35;;;;;;;7.30;4.13;;;;;;;28.78;27.23;101009.75;5070470;28;20127;-70
2023/06/08 10:35:04;;;;;;;9.60;3.65;;;;;;;29.10;27.52;101007.53;5069749;28;20051;-70
2023/06/08 10:37:34;;;;;;;8.17;3.63;;;;;;;28.38;27.97;101003.03;5070835;28;20225;-70
2023/06/08 10:40:11;;;;;;;8.73;3.35;;;;;;;27.90;27.08;101005.97;5070079;28;20125;-71
2023/06/08 10:42:50;;;;;;;8.80;3.60;;;;;;;27.13;28.55;101009.28;5069949;28;20040;-69
2023/06/08 10:45:31;;;;;;;10.38;3.97;;;;;;;26.86;28.01;101007.44;5069728;28;20606;-70
2023/06/08 10:48:08;;;;;;;12.57;3.77;;;;;;;27.11;28.62;101006.00;5052547;28;20040;-70
2023/06/08 10:50:39;;;;;;;9.82;4.20;;;;;;;27.31;28.05;100992.34;5070781;28;20052;-70
2023/06/08 10:53:06;;;;;;;13.52;3.92;;;;;;;26.94;28.76;101001.47;5070473;28;20048;-71
2023/06/08 10:55:32;;;;;;;9.18;3.75;;;;;;;27.08;28.64;100995.50;5069872;28;20052;-69
2023/06/08 10:58:18;;;;;;;11.43;3.90;;;;;;;27.43;28.37;100992.19;5069996;28;20045;-72
2023/06/08 11:00:48;;;;;;;12.43;4.18;;;;;;;27.13;28.73;100993.59;5069772;28;20055;-69
2023/06/08 11:03:20;;;;;;;10.07;4.32;;;;;;;26.67;28.20;100995.97;5069975;28;20049;-71
2023/06/08 11:05:53;;;;;;;6.97;3.75;;;;;;;26.79;28.54;100987.56;5068737;28;20044;-72
2023/06/08 11:08:20;;;;;;;13.13;3.78;;;;;;;26.19;28.26;100988.59;5070129;28;20456;-72
2023/06/08 11:10:53;;;;;;;6.85;3.80;;;;;;;26.00;28.60;100980.69;5069114;28;20075;-72
2023/06/08 11:13:20;;;;;;;7.05;3.97;;;;;;;26.12;28.34;100983.28;5072915;28;20496;-70
2023/06/08 11:15:47;;;;;;;12.70;3.80;;;;;;;25.83;28.90;100986.25;5076700;28;20407;-71
2023/06/08 11:18:18;;;;;;;11.05;4.85;;;;;;;25.89;29.74;100975.31;5058985;28;20071;-71
2023/06/08 11:20:45;;;;;;;9.82;4.07;;;;;;;26.43;29.25;100978.13;5076214;28;20055;-71
2023/06/08 11:23:13;;;;;;;16.08;4.18;;;;;;;25.92;29.86;100966.53;5074688;28;20049;-72
2023/06/08 11:25:40;;;;;;;14.13;4.25;;;;;;;26.08;29.73;100968.38;5058897;28;20049;-71
2023/06/08 11:28:08;;;;;;;9.93;4.32;;;;;;;26.20;29.89;100973.75;5075773;28;20102;-72
2023/06/08 11:30:35;;;;;;;11.43;4.35;;;;;;;26.54;30.17;100958.69;5075313;28;20055;-71
2023/06/08 11:33:06;;;;;;;12.07;4.07;;;;;;;25.71;30.28;100962.72;5076045;28;20040;-72
2023/06/08 11:35:36;;;;;;;;;;;;;;;25.74;30.67;100964.97;5059683;28;20396;-70
2023/06/08 11:38:03;;;;;;;12.88;4.20;;;;;;;26.04;29.96;100951.56;5072651;28;20280;-71